createdAt,value
2022-08-18T00:01:34.427Z,98307.47
2022-08-18T00:04:36.169Z,98310.91
2022-08-18T00:07:14.106Z,98307.03
2022-08-18T00:10:03.273Z,98308.97
2022-08-18T00:12:51.243Z,98317.22
2022-08-18T00:15:41.804Z,98315.11
2022-08-18T00:18:29.340Z,98314.81
2022-08-18T00:21:16.970Z,98313.72
2022-08-18T00:24:04.440Z,98308.27
2022-08-18T00:26:51.732Z,98311.64
2022-08-18T00:29:39.129Z,98315.16
2022-08-18T00:32:29.217Z,98317.43
2022-08-18T00:35:21.030Z,98319.58
2022-08-18T00:38:23.246Z,98322.70
2022-08-18T00:40:59.666Z,98325.78
2022-08-18T00:43:51.447Z,98326.59
2022-08-18T00:46:38.978Z,98323.00
2022-08-18T00:49:26.683Z,98325.88
2022-08-18T00:52:15.355Z,98333.05
2022-08-18T00:55:03.866Z,98337.45
2022-08-18T00:57:53.750Z,98340.83
2022-08-18T01:00:41.281Z,98341.63
2022-08-18T01:03:29.780Z,98350.66
2022-08-18T01:06:21.458Z,98355.28
2022-08-18T01:09:09.908Z,98357.34
2022-08-18T01:11:57.442Z,98362.55
2022-08-18T01:14:45.314Z,98346.70
2022-08-18T01:17:52.764Z,98351.67
2022-08-18T01:21:20.339Z,98348.66
2022-08-18T01:24:10.172Z,98349.22
2022-08-18T01:26:58.161Z,98351.57
2022-08-18T01:29:47.244Z,98356.69
2022-08-18T01:32:34.802Z,98351.70
2022-08-18T01:35:25.739Z,98355.94
2022-08-18T01:38:13.778Z,98352.84
2022-08-18T01:41:28.842Z,98352.05
2022-08-18T01:43:51.369Z,98352.76
2022-08-18T01:46:41.676Z,98362.75
2022-08-18T01:49:29.513Z,98354.09
2022-08-18T01:52:23.184Z,98349.94
2022-08-18T01:55:10.961Z,98349.50
2022-08-18T01:57:58.354Z,98347.09
2022-08-18T02:00:45.729Z,98349.41
2022-08-18T02:03:36.235Z,98356.37
2022-08-18T02:06:32.173Z,98347.80
2022-08-18T02:09:11.697Z,98352.56
2022-08-18T02:11:59.343Z,98351.98
2022-08-18T02:14:46.759Z,98351.98
2022-08-18T02:17:39.362Z,98357.86
2022-08-18T02:20:26.601Z,98353.98
2022-08-18T02:23:14.025Z,98357.27
2022-08-18T02:26:03.034Z,98354.66
2022-08-18T02:28:50.641Z,98358.06
2022-08-18T02:31:38.321Z,98359.02
2022-08-18T02:34:26.410Z,98355.98
2022-08-18T02:37:15.565Z,98347.56
2022-08-18T02:40:03.577Z,98347.63
2022-08-18T02:42:52.864Z,98352.50
2022-08-18T02:45:40.986Z,98342.77
2022-08-18T02:48:38.291Z,98342.39
2022-08-18T02:51:26.273Z,98341.80
2022-08-18T02:54:13.641Z,98344.84
2022-08-18T02:57:00.937Z,98349.35
2022-08-18T02:59:48.405Z,98345.05
2022-08-18T03:02:36.392Z,98338.75
2022-08-18T03:05:23.881Z,98336.34
2022-08-18T03:08:11.849Z,98338.44
2022-08-18T03:10:59.418Z,98340.34
2022-08-18T03:13:47.221Z,98343.84
2022-08-18T03:16:35.371Z,98352.67
2022-08-18T03:19:23.795Z,98356.19
2022-08-18T03:22:28.266Z,98349.67
2022-08-18T03:25:00.296Z,98348.23
2022-08-18T03:27:48.286Z,98347.37
2022-08-18T03:30:36.026Z,98350.69
2022-08-18T03:33:23.361Z,98353.57
2022-08-18T03:36:13.857Z,98354.04
2022-08-18T03:39:10.080Z,98344.85
2022-08-18T03:42:03.511Z,98348.81
2022-08-18T03:44:51.065Z,98349.77
2022-08-18T03:47:38.787Z,98348.16
2022-08-18T03:50:26.042Z,98354.06
2022-08-18T03:53:13.329Z,98348.00
2022-08-18T03:56:00.608Z,98356.80
2022-08-18T03:58:56.338Z,98358.23
2022-08-18T04:01:44.958Z,98358.60
2022-08-18T04:04:32.947Z,98358.88
2022-08-18T04:07:21.712Z,98366.43
2022-08-18T04:10:19.131Z,98368.13
2022-08-18T04:12:59.377Z,98360.23
2022-08-18T04:15:46.729Z,98352.40
2022-08-18T04:18:34.648Z,98345.36
2022-08-18T04:21:23.905Z,98350.15
2022-08-18T04:24:13.545Z,98350.88
2022-08-18T04:27:02.343Z,98353.84
2022-08-18T04:29:50.237Z,98355.88
2022-08-18T04:32:37.978Z,98364.25
2022-08-18T04:35:25.026Z,98367.88
2022-08-18T04:38:12.337Z,98372.44
2022-08-18T04:40:59.650Z,98378.98
2022-08-18T04:43:48.633Z,98385.92
2022-08-18T04:46:41.676Z,98394.36
2022-08-18T04:49:30.501Z,98385.39
2022-08-18T04:52:40.525Z,98394.77
2022-08-18T04:55:24.592Z,98396.59
2022-08-18T04:58:12.274Z,98405.82
2022-08-18T05:01:03.218Z,98404.47
2022-08-18T05:03:55.226Z,98409.50
2022-08-18T05:06:43.913Z,98411.66
2022-08-18T05:09:31.346Z,98414.48
2022-08-18T05:12:20.533Z,98410.66
2022-08-18T05:15:10.449Z,98403.95
2022-08-18T05:17:57.577Z,98407.02
2022-08-18T05:20:46.165Z,98409.22
2022-08-18T05:23:33.680Z,98407.37
2022-08-18T05:26:21.289Z,98409.21
2022-08-18T05:29:18.689Z,98405.20
2022-08-18T05:31:58.585Z,98408.19
2022-08-18T05:34:47.633Z,98409.38
2022-08-18T05:37:47.736Z,98410.16
2022-08-18T05:40:34.887Z,98403.34
2022-08-18T05:43:22.261Z,98413.25
2022-08-18T05:46:11.311Z,98410.98
2022-08-18T05:48:58.600Z,98411.88
2022-08-18T05:51:48.607Z,98412.37
2022-08-18T05:55:02.361Z,98415.09
2022-08-18T05:57:55.408Z,98412.81
2022-08-18T06:00:45.064Z,98412.17
2022-08-18T06:03:45.002Z,98415.51
2022-08-18T06:06:29.617Z,98418.00
2022-08-18T06:12:47.190Z,98417.61
2022-08-18T06:15:41.383Z,98416.65
2022-08-18T06:18:35.865Z,98417.89
2022-08-18T06:21:38.320Z,98422.56
2022-08-18T06:24:34.147Z,98418.17
2022-08-18T06:27:31.537Z,98425.00
2022-08-18T06:30:24.672Z,98439.30
2022-08-18T06:33:15.144Z,98438.12
2022-08-18T06:36:20.313Z,98433.90
2022-08-18T06:39:15.003Z,98436.91
2022-08-18T06:42:04.137Z,98436.48
2022-08-18T06:44:54.136Z,98434.69
2022-08-18T06:47:59.752Z,98427.77
2022-08-18T06:53:53.993Z,98426.45
2022-08-18T06:56:44.540Z,98424.02
2022-08-18T06:59:32.097Z,98430.83
2022-08-18T07:02:31.273Z,98423.91
2022-08-18T07:05:26.432Z,98434.20
2022-08-18T07:08:26.032Z,98438.00
2022-08-18T07:11:22.048Z,98438.00
2022-08-18T07:14:17.944Z,98428.67
2022-08-18T07:17:10.335Z,98432.80
2022-08-18T07:20:00.809Z,98432.84
2022-08-18T07:23:00.325Z,98440.39
2022-08-18T07:25:48.475Z,98438.20
2022-08-18T07:28:39.056Z,98435.42
2022-08-18T07:31:39.209Z,98441.98
2022-08-18T07:34:29.329Z,98441.39
2022-08-18T07:37:46.677Z,98439.22
2022-08-18T07:40:51.921Z,98445.23
2022-08-18T07:43:54.635Z,98453.44
2022-08-18T07:49:31.408Z,98447.36
2022-08-18T07:52:44.269Z,98447.36
2022-08-18T07:55:32.216Z,98445.42
2022-08-18T07:58:25.658Z,98447.14
2022-08-18T08:01:22.435Z,98443.80
2022-08-18T08:04:32.305Z,98443.95
2022-08-18T08:07:31.329Z,98447.75
2022-08-18T08:10:44.513Z,98447.60
2022-08-18T08:14:01.429Z,98450.88
2022-08-18T08:16:52.585Z,98455.02
2022-08-18T08:20:00.859Z,98448.59
2022-08-18T08:22:43.826Z,98447.70
2022-08-18T08:25:46.756Z,98443.52
2022-08-18T08:28:43.440Z,98449.97
2022-08-18T08:31:38.353Z,98447.33
2022-08-18T08:34:43.464Z,98450.05
2022-08-18T08:37:45.698Z,98443.99
2022-08-18T08:40:42.971Z,98440.72
2022-08-18T08:43:39.113Z,98438.67
2022-08-18T08:46:31.265Z,98434.05
2022-08-18T08:49:21.688Z,98435.09
2022-08-18T08:52:24.546Z,98438.64
2022-08-18T08:58:29.626Z,98432.05
2022-08-18T09:01:29.630Z,98438.91
2022-08-18T09:04:29.688Z,98432.95
2022-08-18T09:07:23.138Z,98438.98
2022-08-18T09:10:25.237Z,98434.88
2022-08-18T09:13:32.856Z,98432.88
2022-08-18T09:16:38.220Z,98424.70
2022-08-18T09:19:50.104Z,98418.16
2022-08-18T09:22:49.030Z,98422.42
2022-08-18T09:25:45.461Z,98421.81
2022-08-18T09:28:44.192Z,98420.58
2022-08-18T09:31:32.470Z,98420.91
2022-08-18T09:34:51.638Z,98421.67
2022-08-18T09:41:16.021Z,98427.77
2022-08-18T09:44:17.779Z,98432.67
2022-08-18T09:47:01.746Z,98415.88
2022-08-18T09:49:55.617Z,98415.88
2022-08-18T09:52:48.698Z,98418.17
2022-08-18T09:55:41.285Z,98416.70
2022-08-18T09:58:51.211Z,98416.70
2022-08-18T10:01:41.163Z,98429.17
2022-08-18T10:04:32.338Z,98420.65
2022-08-18T10:10:59.802Z,98417.21
2022-08-18T10:20:01.793Z,98414.70
2022-08-18T10:22:51.193Z,98413.02
2022-08-18T10:25:46.129Z,98412.22
2022-08-18T10:28:55.076Z,98413.89
2022-08-18T10:32:00.993Z,98411.64
2022-08-18T10:34:54.786Z,98407.60
2022-08-18T10:37:49.128Z,98409.70
2022-08-18T10:40:37.939Z,98416.45
2022-08-18T10:43:45.731Z,98418.63
2022-08-18T10:46:25.480Z,98427.61
2022-08-18T10:49:17.513Z,98421.19
2022-08-18T10:52:29.515Z,98418.50
2022-08-18T10:55:54.909Z,98418.67
2022-08-18T10:58:58.955Z,98433.10
2022-08-18T11:01:51.977Z,98416.34
2022-08-18T11:10:30.086Z,98418.06
2022-08-18T11:13:36.278Z,98412.43
2022-08-18T11:16:41.979Z,98413.03
2022-08-18T11:19:29.714Z,98402.58
2022-08-18T11:25:28.127Z,98402.70
2022-08-18T11:28:20.634Z,98393.48
2022-08-18T11:31:08.536Z,98387.48
2022-08-18T11:34:00.060Z,98384.75
2022-08-18T11:36:59.375Z,98385.06
2022-08-18T11:39:52.113Z,98379.69
2022-08-18T11:42:41.931Z,98379.98
2022-08-18T11:45:30.390Z,98373.84
2022-08-18T11:48:39.086Z,98378.89
2022-08-18T11:51:24.750Z,98366.84
2022-08-18T11:54:15.501Z,98368.41
2022-08-18T11:57:36.217Z,98367.75
2022-08-18T12:03:22.453Z,98364.31
2022-08-18T12:10:15.871Z,98364.31
2022-08-18T12:12:30.183Z,98362.30
2022-08-18T12:18:10.318Z,98365.98
2022-08-18T12:21:02.965Z,98354.78
2022-08-18T12:23:52.489Z,98360.66
2022-08-18T12:26:47.259Z,98355.48
2022-08-18T12:29:33.188Z,98351.20
2022-08-18T12:32:41.356Z,98347.02
2022-08-18T12:35:09.417Z,98350.94
2022-08-18T12:38:03.518Z,98342.81
2022-08-18T12:40:46.914Z,98347.22
2022-08-18T12:43:34.690Z,98347.11
2022-08-18T12:46:25.574Z,98336.17
2022-08-18T12:49:16.576Z,98334.42
2022-08-18T12:52:04.261Z,98337.13
2022-08-18T12:54:55.232Z,98326.59
2022-08-18T12:57:52.190Z,98324.02
2022-08-18T13:00:30.518Z,98314.75
2022-08-18T13:03:19.402Z,98304.07
2022-08-18T13:06:06.993Z,98302.36
2022-08-18T13:08:56.201Z,98290.55
2022-08-18T13:11:43.634Z,98282.71
2022-08-18T13:14:30.837Z,98292.88
2022-08-18T13:17:29.995Z,98280.39
2022-08-18T13:20:13.549Z,98277.97
2022-08-18T13:23:01.425Z,98276.81
2022-08-18T13:25:49.161Z,98274.55
2022-08-18T13:28:58.200Z,98269.92
2022-08-18T13:31:28.944Z,98267.03
2022-08-18T13:34:19.323Z,98275.61
2022-08-18T13:37:06.170Z,98272.84
2022-08-18T13:39:53.987Z,98266.64
2022-08-18T13:42:50.701Z,98273.41
2022-08-18T13:45:37.944Z,98274.11
2022-08-18T13:48:28.955Z,98265.83
2022-08-18T13:51:20.458Z,98277.11
2022-08-18T13:57:00.348Z,98285.14
2022-08-18T13:59:47.771Z,98278.19
2022-08-18T14:02:35.795Z,98280.57
2022-08-18T14:05:36.995Z,98276.69
2022-08-18T14:08:19.595Z,98271.40
2022-08-18T14:11:01.905Z,98277.56
2022-08-18T14:13:49.512Z,98275.12
2022-08-18T14:16:37.127Z,98278.79
2022-08-18T14:22:48.751Z,98283.15
2022-08-18T14:25:54.508Z,98299.34
2022-08-18T14:28:43.517Z,98303.06
2022-08-18T14:31:34.042Z,98307.75
2022-08-18T14:34:22.005Z,98300.00
2022-08-18T14:37:12.123Z,98313.03
2022-08-18T14:40:00.256Z,98312.88
2022-08-18T14:42:54.401Z,98315.45
2022-08-18T14:45:37.228Z,98308.57
2022-08-18T14:48:26.491Z,98312.63
2022-08-18T14:51:13.257Z,98307.88
2022-08-18T14:54:01.259Z,98307.47
2022-08-18T14:56:49.537Z,98308.00
2022-08-18T14:59:38.084Z,98303.28
2022-08-18T15:02:25.722Z,98306.59
2022-08-18T15:05:19.568Z,98314.73
2022-08-18T15:08:05.082Z,98311.42
2022-08-18T15:10:51.937Z,98307.53
2022-08-18T15:13:45.132Z,98310.40
2022-08-18T15:16:34.916Z,98305.75
2022-08-18T15:19:58.683Z,98305.00
2022-08-18T15:22:32.416Z,98299.44
2022-08-18T15:25:36.786Z,98300.06
2022-08-18T15:28:27.703Z,98302.08
2022-08-18T15:31:17.953Z,98295.41
2022-08-18T15:34:04.444Z,98286.91
2022-08-18T15:36:53.213Z,98281.43
2022-08-18T15:39:40.842Z,98276.52
2022-08-18T15:42:27.992Z,98277.94
2022-08-18T15:45:17.239Z,98275.41
2022-08-18T15:48:05.288Z,98286.20
2022-08-18T15:50:53.722Z,98283.02
2022-08-18T15:53:44.909Z,98287.84
2022-08-18T15:56:31.701Z,98276.78
2022-08-18T15:59:19.004Z,98279.93
2022-08-18T16:02:11.820Z,98283.48
2022-08-18T16:04:58.141Z,98286.42
2022-08-18T16:07:47.820Z,98289.23
2022-08-18T16:10:37.903Z,98286.51
2022-08-18T16:13:27.239Z,98282.77
2022-08-18T16:16:17.679Z,98283.35
2022-08-18T16:19:07.693Z,98290.66
2022-08-18T16:21:56.880Z,98289.97
2022-08-18T16:24:45.321Z,98293.13
2022-08-18T16:27:34.497Z,98290.09
2022-08-18T16:30:24.642Z,98283.47
2022-08-18T16:33:12.035Z,98290.12
2022-08-18T16:36:07.819Z,98295.48
2022-08-18T16:38:58.324Z,98285.77
2022-08-18T16:41:45.277Z,98279.52
2022-08-18T16:44:34.067Z,98279.17
2022-08-18T16:47:21.572Z,98280.47
2022-08-18T16:50:14.789Z,98281.56
2022-08-18T16:53:03.158Z,98274.78
2022-08-18T16:55:51.844Z,98276.61
2022-08-18T16:58:57.269Z,98274.94
2022-08-18T17:02:03.094Z,98276.95
2022-08-18T17:04:52.182Z,98273.23
2022-08-18T17:07:40.046Z,98272.17
2022-08-18T17:10:27.283Z,98271.30
2022-08-18T17:13:15.000Z,98273.61
2022-08-18T17:16:02.321Z,98269.20
2022-08-18T17:18:50.452Z,98269.53
2022-08-18T17:21:39.712Z,98268.78
2022-08-18T17:24:31.983Z,98275.72
2022-08-18T17:27:26.308Z,98276.54
2022-08-18T17:30:17.752Z,98267.92
2022-08-18T17:33:08.391Z,98278.35
2022-08-18T17:35:56.616Z,98282.95
2022-08-18T17:38:57.391Z,98290.32
2022-08-18T17:42:02.839Z,98283.76
2022-08-18T17:44:52.545Z,98284.23
2022-08-18T17:48:04.836Z,98280.53
2022-08-18T17:51:15.881Z,98279.17
2022-08-18T17:54:19.281Z,98278.66
2022-08-18T17:59:52.352Z,98274.23
2022-08-18T18:02:41.247Z,98275.67
2022-08-18T18:05:31.666Z,98284.34
2022-08-18T18:08:19.249Z,98283.52
2022-08-18T18:11:10.089Z,98275.82
2022-08-18T18:13:58.368Z,98285.44
2022-08-18T18:16:45.632Z,98282.69
2022-08-18T18:19:33.793Z,98290.63
2022-08-18T18:22:27.196Z,98295.81
2022-08-18T18:25:15.024Z,98299.36
2022-08-18T18:28:02.442Z,98304.89
2022-08-18T18:30:49.917Z,98303.75
2022-08-18T18:33:38.433Z,98308.09
2022-08-18T18:36:42.386Z,98311.95
2022-08-18T18:39:33.303Z,98307.79
2022-08-18T18:42:24.185Z,98307.23
2022-08-18T18:45:14.906Z,98307.20
2022-08-18T18:48:51.188Z,98308.23
2022-08-18T18:51:10.496Z,98309.48
2022-08-18T18:54:15.262Z,98310.13
2022-08-18T18:57:07.041Z,98304.12
2022-08-18T19:00:19.871Z,98293.50
2022-08-18T19:03:25.596Z,98294.13
2022-08-18T19:06:19.213Z,98299.73
2022-08-18T19:09:43.760Z,98298.72
2022-08-18T19:12:36.497Z,98296.50
2022-08-18T19:15:25.898Z,98293.50
2022-08-18T19:18:16.491Z,98304.12
2022-08-18T19:22:02.243Z,98318.58
2022-08-18T19:24:22.658Z,98317.98
2022-08-18T19:27:13.221Z,98322.58
2022-08-18T19:30:03.012Z,98317.13
2022-08-18T19:32:56.362Z,98308.11
2022-08-18T19:36:05.602Z,98318.73
2022-08-18T19:39:20.923Z,98317.69
2022-08-18T19:42:14.723Z,98321.27
2022-08-18T19:45:21.483Z,98332.23
2022-08-18T19:48:21.195Z,98332.63
2022-08-18T19:51:12.996Z,98338.00
2022-08-18T19:54:23.195Z,98339.37
2022-08-18T19:57:34.913Z,98346.59
2022-08-18T20:00:43.465Z,98343.41
2022-08-18T20:03:39.635Z,98345.80
2022-08-18T20:07:02.474Z,98337.73
2022-08-18T20:10:25.916Z,98338.69
2022-08-18T20:13:32.973Z,98338.00
2022-08-18T20:16:44.368Z,98339.50
2022-08-18T20:20:03.007Z,98330.43
2022-08-18T20:22:57.018Z,98317.95
2022-08-18T20:25:44.890Z,98309.94
2022-08-18T20:28:40.753Z,98303.30
2022-08-18T20:31:32.467Z,98296.86
2022-08-18T20:34:23.029Z,98294.22
2022-08-18T20:37:10.738Z,98285.19
2022-08-18T20:39:58.439Z,98277.38
2022-08-18T20:42:55.837Z,98270.20
2022-08-18T20:45:46.003Z,98258.80
2022-08-18T20:48:37.939Z,98256.03
2022-08-18T20:51:26.852Z,98248.25
2022-08-18T20:54:34.698Z,98252.28
2022-08-18T20:57:22.545Z,98254.69
2022-08-18T21:00:27.066Z,98255.89
2022-08-18T21:03:12.139Z,98255.86
2022-08-18T21:06:00.578Z,98247.81
2022-08-18T21:08:53.569Z,98240.37
2022-08-18T21:11:45.882Z,98238.01
2022-08-18T21:14:33.312Z,98244.25
2022-08-18T21:17:22.354Z,98237.27
2022-08-18T21:20:13.080Z,98228.28
2022-08-18T21:23:09.136Z,98223.88
2022-08-18T21:25:59.816Z,98222.28
2022-08-18T21:31:44.351Z,98216.90
2022-08-18T21:34:36.602Z,98224.87
2022-08-18T21:37:23.872Z,98229.71
2022-08-18T21:40:12.352Z,98239.72
2022-08-18T21:43:00.097Z,98240.52
2022-08-18T21:45:56.135Z,98234.52
2022-08-18T21:48:48.329Z,98238.72
2022-08-18T21:51:50.576Z,98239.92
2022-08-18T21:54:39.018Z,98234.92
2022-08-18T21:57:30.266Z,98234.11
2022-08-18T22:00:26.620Z,98236.69
2022-08-18T22:03:16.888Z,98233.66
2022-08-18T22:06:16.424Z,98240.07
2022-08-18T22:09:08.760Z,98249.65
2022-08-18T22:12:49.696Z,98248.45
2022-08-18T22:15:42.856Z,98255.69
2022-08-18T22:18:39.672Z,98264.33
2022-08-18T22:21:41.527Z,98275.16
2022-08-18T22:24:38.544Z,98278.97
2022-08-18T22:27:27.512Z,98273.53
2022-08-18T22:30:15.273Z,98279.45
2022-08-18T22:33:02.546Z,98277.14
2022-08-18T22:38:35.519Z,98278.23
2022-08-18T22:41:23.831Z,98286.31
2022-08-18T22:44:11.239Z,98282.59
2022-08-18T22:46:58.535Z,98274.47
2022-08-18T22:49:46.602Z,98269.57
2022-08-18T22:52:36.521Z,98268.52
2022-08-18T22:55:24.048Z,98270.67
2022-08-18T22:58:11.680Z,98273.27
2022-08-18T23:01:05.189Z,98268.22
2022-08-18T23:03:49.516Z,98261.76
2022-08-18T23:06:36.935Z,98254.03
2022-08-18T23:09:27.408Z,98247.38
2022-08-18T23:12:14.868Z,98259.81
2022-08-18T23:15:04.551Z,98265.66
2022-08-18T23:17:52.823Z,98260.68
2022-08-18T23:20:40.986Z,98264.12
2022-08-18T23:23:30.040Z,98265.81
2022-08-18T23:26:17.792Z,98269.87
2022-08-18T23:29:07.744Z,98271.08
2022-08-18T23:31:55.663Z,98274.52
2022-08-18T23:34:42.561Z,98271.52
2022-08-18T23:37:31.786Z,98267.07
2022-08-18T23:40:19.715Z,98259.62
2022-08-18T23:43:07.369Z,98271.81
2022-08-18T23:45:54.978Z,98261.98
2022-08-18T23:48:44.055Z,98260.81
2022-08-18T23:51:37.138Z,98261.62
2022-08-18T23:54:27.919Z,98263.98
2022-08-18T23:57:15.519Z,98245.09
